sensor_id;sensor_type;location;lat;lon;timestamp;pressure;altitude;pressure_sealevel;temperature;humidity
36260;BME280;22296;50.824;5.644;2023-04-25T00:01:42;100185.03;;;15.12;59.22
36260;BME280;22296;50.824;5.644;2023-04-25T00:04:08;100180.28;;;15.13;59.23
36260;BME280;22296;50.824;5.644;2023-04-25T00:06:36;100180.63;;;15.11;59.44
36260;BME280;22296;50.824;5.644;2023-04-25T00:09:04;100179.50;;;15.12;59.27
36260;BME280;22296;50.824;5.644;2023-04-25T00:11:33;100183.41;;;15.11;59.44
36260;BME280;22296;50.824;5.644;2023-04-25T00:14:00;100182.94;;;15.09;59.42
36260;BME280;22296;50.824;5.644;2023-04-25T00:16:29;100179.00;;;15.10;59.29
36260;BME280;22296;50.824;5.644;2023-04-25T00:19:00;100172.16;;;15.08;59.55
36260;BME280;22296;50.824;5.644;2023-04-25T00:21:28;100180.00;;;15.06;59.42
36260;BME280;22296;50.824;5.644;2023-04-25T00:23:55;100183.25;;;15.08;59.59
36260;BME280;22296;50.824;5.644;2023-04-25T00:26:22;100182.44;;;15.07;59.45
36260;BME280;22296;50.824;5.644;2023-04-25T00:28:49;100191.28;;;15.09;59.45
36260;BME280;22296;50.824;5.644;2023-04-25T00:31:16;100185.41;;;15.02;59.47
36260;BME280;22296;50.824;5.644;2023-04-25T00:33:43;100182.44;;;15.07;59.53
36260;BME280;22296;50.824;5.644;2023-04-25T00:36:10;100185.88;;;15.04;59.44
36260;BME280;22296;50.824;5.644;2023-04-25T00:38:37;100189.47;;;15.05;59.46
36260;BME280;22296;50.824;5.644;2023-04-25T00:41:07;100188.19;;;15.02;59.63
36260;BME280;22296;50.824;5.644;2023-04-25T00:43:36;100191.78;;;15.03;59.67
36260;BME280;22296;50.824;5.644;2023-04-25T00:46:02;100187.06;;;15.03;59.63
36260;BME280;22296;50.824;5.644;2023-04-25T00:48:29;100187.06;;;15.03;59.55
36260;BME280;22296;50.824;5.644;2023-04-25T00:50:59;100185.41;;;15.02;59.58
36260;BME280;22296;50.824;5.644;2023-04-25T00:53:27;100185.41;;;15.02;59.68
36260;BME280;22296;50.824;5.644;2023-04-25T00:55:54;100181.50;;;15.03;59.57
36260;BME280;22296;50.824;5.644;2023-04-25T00:58:24;100183.78;;;15.01;59.52
36260;BME280;22296;50.824;5.644;2023-04-25T01:00:51;100178.22;;;15.01;59.46
36260;BME280;22296;50.824;5.644;2023-04-25T01:03:19;100180.53;;;14.99;59.70
36260;BME280;22296;50.824;5.644;2023-04-25T01:05:49;100187.72;;;15.00;59.47
36260;BME280;22296;50.824;5.644;2023-04-25T01:08:17;100187.72;;;15.00;59.55
36260;BME280;22296;50.824;5.644;2023-04-25T01:10:44;100186.09;;;14.99;59.60
36260;BME280;22296;50.824;5.644;2023-04-25T01:13:10;100194.41;;;14.99;59.55
36260;BME280;22296;50.824;5.644;2023-04-25T01:15:37;100197.19;;;14.99;59.59
36260;BME280;22296;50.824;5.644;2023-04-25T01:18:05;100193.94;;;14.97;59.62
36260;BME280;22296;50.824;5.644;2023-04-25T01:20:33;100195.09;;;14.96;59.64
36260;BME280;22296;50.824;5.644;2023-04-25T01:23:01;100192.78;;;14.98;59.64
36260;BME280;22296;50.824;5.644;2023-04-25T01:25:30;100194.78;;;14.98;59.58
36260;BME280;22296;50.824;5.644;2023-04-25T01:27:58;100197.53;;;14.98;59.61
36260;BME280;22296;50.824;5.644;2023-04-25T01:30:26;100196.22;;;14.95;59.66
36260;BME280;22296;50.824;5.644;2023-04-25T01:32:57;100186.28;;;14.94;59.61
36260;BME280;22296;50.824;5.644;2023-04-25T01:35:27;100200.66;;;14.96;59.62
36260;BME280;22296;50.824;5.644;2023-04-25T01:37:57;100206.19;;;14.96;59.61
36260;BME280;22296;50.824;5.644;2023-04-25T01:40:24;100201.78;;;14.95;59.70
36260;BME280;22296;50.824;5.644;2023-04-25T01:42:52;100205.72;;;14.94;59.57
36260;BME280;22296;50.824;5.644;2023-04-25T01:45:19;100199.72;;;14.92;59.62
36260;BME280;22296;50.824;5.644;2023-04-25T01:47:47;100200.84;;;14.91;59.73
36260;BME280;22296;50.824;5.644;2023-04-25T01:50:18;100200.84;;;14.91;59.73
36260;BME280;22296;50.824;5.644;2023-04-25T01:52:45;100202.47;;;14.92;59.72
36260;BME280;22296;50.824;5.644;2023-04-25T01:55:13;100200.84;;;14.91;59.84
36260;BME280;22296;50.824;5.644;2023-04-25T01:57:52;100203.16;;;14.89;59.81
36260;BME280;22296;50.824;5.644;2023-04-25T02:00:25;100211.47;;;14.89;59.83
36260;BME280;22296;50.824;5.644;2023-04-25T02:02:51;100206.25;;;14.88;59.81
36260;BME280;22296;50.824;5.644;2023-04-25T02:05:27;100212.63;;;14.88;59.56
36260;BME280;22296;50.824;5.644;2023-04-25T02:07:53;100217.34;;;14.88;59.83
36260;BME280;22296;50.824;5.644;2023-04-25T02:10:23;100222.09;;;14.87;59.83
36260;BME280;22296;50.824;5.644;2023-04-25T02:13:04;100212.63;;;14.88;59.79
36260;BME280;22296;50.824;5.644;2023-04-25T02:15:50;100217.69;;;14.86;59.78
36260;BME280;22296;50.824;5.644;2023-04-25T02:18:18;100214.91;;;14.86;59.95
36260;BME280;22296;50.824;5.644;2023-04-25T02:20:45;100217.69;;;14.86;59.80
36260;BME280;22296;50.824;5.644;2023-04-25T02:23:12;100222.09;;;14.87;59.75
36260;BME280;22296;50.824;5.644;2023-04-25T02:25:39;100220.78;;;14.84;59.69
36260;BME280;22296;50.824;5.644;2023-04-25T02:28:06;100223.25;;;14.86;59.77
36260;BME280;22296;50.824;5.644;2023-04-25T02:30:33;100216.41;;;14.83;59.90
36260;BME280;22296;50.824;5.644;2023-04-25T02:32:59;100216.06;;;14.85;59.86
36260;BME280;22296;50.824;5.644;2023-04-25T02:35:28;100219.50;;;14.82;60.02
36260;BME280;22296;50.824;5.644;2023-04-25T02:37:55;100220.63;;;14.81;59.90
36260;BME280;22296;50.824;5.644;2023-04-25T02:40:21;100224.59;;;14.80;59.81
36260;BME280;22296;50.824;5.644;2023-04-25T02:42:48;100223.41;;;14.81;59.89
36260;BME280;22296;50.824;5.644;2023-04-25T02:45:15;100228.97;;;14.81;59.98
36260;BME280;22296;50.824;5.644;2023-04-25T02:47:41;100217.88;;;14.81;59.82
36260;BME280;22296;50.824;5.644;2023-04-25T02:50:08;100219.84;;;14.80;59.96
36260;BME280;22296;50.824;5.644;2023-04-25T02:52:35;100224.09;;;14.78;59.83
36260;BME280;22296;50.824;5.644;2023-04-25T02:55:10;100230.47;;;14.78;59.94
36260;BME280;22296;50.824;5.644;2023-04-25T02:57:38;100223.28;;;14.77;60.07
36260;BME280;22296;50.824;5.644;2023-04-25T03:00:08;100232.75;;;14.76;60.08
36260;BME280;22296;50.824;5.644;2023-04-25T03:02:35;100231.94;;;14.76;59.91
36260;BME280;22296;50.824;5.644;2023-04-25T03:05:02;100226.84;;;14.78;60.01
36260;BME280;22296;50.824;5.644;2023-04-25T03:07:30;100220.84;;;14.76;59.97
36260;BME280;22296;50.824;5.644;2023-04-25T03:09:56;100222.47;;;14.77;59.99
36260;BME280;22296;50.824;5.644;2023-04-25T03:12:23;100219.69;;;14.77;60.09
36260;BME280;22296;50.824;5.644;2023-04-25T03:14:50;100223.13;;;14.74;60.00
36260;BME280;22296;50.824;5.644;2023-04-25T03:17:17;100217.91;;;14.72;60.00
36260;BME280;22296;50.824;5.644;2023-04-25T03:19:44;100219.91;;;14.72;60.19
36260;BME280;22296;50.824;5.644;2023-04-25T03:22:11;100218.72;;;14.73;59.94
36260;BME280;22296;50.824;5.644;2023-04-25T03:24:38;100223.13;;;14.74;59.99
36260;BME280;22296;50.824;5.644;2023-04-25T03:27:04;100231.47;;;14.74;59.92
36260;BME280;22296;50.824;5.644;2023-04-25T03:29:31;100232.59;;;14.73;60.09
36260;BME280;22296;50.824;5.644;2023-04-25T03:32:02;100223.47;;;14.72;60.06
36260;BME280;22296;50.824;5.644;2023-04-25T03:34:29;100225.44;;;14.72;60.08
36260;BME280;22296;50.824;5.644;2023-04-25T03:36:56;100220.56;;;14.69;60.09
36260;BME280;22296;50.824;5.644;2023-04-25T03:39:23;100229.34;;;14.71;60.08
36260;BME280;22296;50.824;5.644;2023-04-25T03:41:51;100223.34;;;14.69;60.17
36260;BME280;22296;50.824;5.644;2023-04-25T03:44:19;100228.88;;;14.69;60.31
36260;BME280;22296;50.824;5.644;2023-04-25T03:46:46;100228.88;;;14.69;60.11
36260;BME280;22296;50.824;5.644;2023-04-25T03:49:14;100221.22;;;14.66;60.28
36260;BME280;22296;50.824;5.644;2023-04-25T03:52:02;100232.78;;;14.68;60.16
36260;BME280;22296;50.824;5.644;2023-04-25T03:54:40;100231.16;;;14.67;60.29
36260;BME280;22296;50.824;5.644;2023-04-25T03:57:10;100229.19;;;14.67;60.16
36260;BME280;22296;50.824;5.644;2023-04-25T03:59:38;100230.69;;;14.65;60.19
36260;BME280;22296;50.824;5.644;2023-04-25T04:02:07;100233.47;;;14.65;60.17
36260;BME280;22296;50.824;5.644;2023-04-25T04:04:35;100237.06;;;14.65;60.07
36260;BME280;22296;50.824;5.644;2023-04-25T04:07:03;100241.78;;;14.65;60.11
36260;BME280;22296;50.824;5.644;2023-04-25T04:09:34;100248.47;;;14.64;60.19
36260;BME280;22296;50.824;5.644;2023-04-25T04:12:06;100251.59;;;14.62;60.37
36260;BME280;22296;50.824;5.644;2023-04-25T04:14:34;100259.09;;;14.62;60.05
36260;BME280;22296;50.824;5.644;2023-04-25T04:17:01;100259.91;;;14.62;60.08
36260;BME280;22296;50.824;5.644;2023-04-25T04:19:28;100259.91;;;14.62;60.25
36260;BME280;22296;50.824;5.644;2023-04-25T04:22:05;100267.09;;;14.63;60.28
36260;BME280;22296;50.824;5.644;2023-04-25T04:24:32;100260.59;;;14.59;60.07
36260;BME280;22296;50.824;5.644;2023-04-25T04:27:02;100260.22;;;14.61;60.30
36260;BME280;22296;50.824;5.644;2023-04-25T04:29:43;100266.94;;;14.60;60.29
36260;BME280;22296;50.824;5.644;2023-04-25T04:32:15;100269.72;;;14.60;60.33
36260;BME280;22296;50.824;5.644;2023-04-25T04:34:42;100265.31;;;14.59;60.34
36260;BME280;22296;50.824;5.644;2023-04-25T04:37:12;100272.59;;;14.80;59.80
36260;BME280;22296;50.824;5.644;2023-04-25T04:39:41;100262.66;;;14.71;60.29
36260;BME280;22296;50.824;5.644;2023-04-25T04:42:26;100279.50;;;14.66;60.42
36260;BME280;22296;50.824;5.644;2023-04-25T04:45:14;100284.06;;;14.62;60.56
36260;BME280;22296;50.824;5.644;2023-04-25T04:48:03;100288.66;;;14.58;60.73
36260;BME280;22296;50.824;5.644;2023-04-25T04:50:32;100288.16;;;14.56;60.65
36260;BME280;22296;50.824;5.644;2023-04-25T04:53:31;100292.13;;;14.55;60.55
36260;BME280;22296;50.824;5.644;2023-04-25T04:56:18;100288.50;;;14.54;60.59
36260;BME280;22296;50.824;5.644;2023-04-25T04:58:47;100287.22;;;14.52;60.78
36260;BME280;22296;50.824;5.644;2023-04-25T05:01:25;100290.78;;;14.52;60.47
36260;BME280;22296;50.824;5.644;2023-04-25T05:04:12;100295.53;;;14.52;60.50
36260;BME280;22296;50.824;5.644;2023-04-25T05:06:39;100306.66;;;14.52;60.66
36260;BME280;22296;50.824;5.644;2023-04-25T05:09:16;100307.78;;;14.51;60.74
36260;BME280;22296;50.824;5.644;2023-04-25T05:12:03;100319.53;;;14.48;60.55
36260;BME280;22296;50.824;5.644;2023-04-25T05:14:48;100318.88;;;14.51;60.61
36260;BME280;22296;50.824;5.644;2023-04-25T05:17:47;100314.00;;;14.48;60.61
36260;BME280;22296;50.824;5.644;2023-04-25T05:20:44;100319.53;;;14.48;60.44
36260;BME280;22296;50.824;5.644;2023-04-25T05:23:32;100328.19;;;14.46;60.54
36260;BME280;22296;50.824;5.644;2023-04-25T05:26:21;100334.53;;;14.47;60.46
36260;BME280;22296;50.824;5.644;2023-04-25T05:28:57;100334.53;;;14.47;60.39
36260;BME280;22296;50.824;5.644;2023-04-25T05:31:44;100333.75;;;14.46;60.67
36260;BME280;22296;50.824;5.644;2023-04-25T05:34:14;100349.56;;;14.46;60.38
36260;BME280;22296;50.824;5.644;2023-04-25T05:36:58;100353.47;;;14.45;60.45
36260;BME280;22296;50.824;5.644;2023-04-25T05:39:26;100347.94;;;14.45;60.34
36260;BME280;22296;50.824;5.644;2023-04-25T05:42:10;100352.66;;;14.44;60.57
36260;BME280;22296;50.824;5.644;2023-04-25T05:45:06;100357.25;;;14.40;60.43
36260;BME280;22296;50.824;5.644;2023-04-25T05:47:56;100357.38;;;14.44;60.47
36260;BME280;22296;50.824;5.644;2023-04-25T05:50:36;100366.38;;;14.41;60.43
36260;BME280;22296;50.824;5.644;2023-04-25T05:53:21;100369.47;;;14.56;60.42
36260;BME280;22296;50.824;5.644;2023-04-25T05:55:55;100370.28;;;14.65;60.39
36260;BME280;22296;50.824;5.644;2023-04-25T05:58:34;100371.22;;;14.69;60.63
36260;BME280;22296;50.824;5.644;2023-04-25T06:01:02;100378.56;;;14.74;60.71
36260;BME280;22296;50.824;5.644;2023-04-25T06:03:29;100378.88;;;14.81;60.58
36260;BME280;22296;50.824;5.644;2023-04-25T06:05:57;100381.50;;;14.86;60.29
36260;BME280;22296;50.824;5.644;2023-04-25T06:08:25;100377.56;;;14.87;60.36
36260;BME280;22296;50.824;5.644;2023-04-25T06:10:52;100385.72;;;14.92;60.20
36260;BME280;22296;50.824;5.644;2023-04-25T06:13:18;100388.31;;;14.97;60.08
36260;BME280;22296;50.824;5.644;2023-04-25T06:15:45;100389.78;;;15.03;60.19
36260;BME280;22296;50.824;5.644;2023-04-25T06:18:12;100387.94;;;15.07;60.00
36260;BME280;22296;50.824;5.644;2023-04-25T06:20:39;100389.59;;;15.08;59.92
36260;BME280;22296;50.824;5.644;2023-04-25T06:23:06;100388.31;;;14.97;59.93
36260;BME280;22296;50.824;5.644;2023-04-25T06:25:49;100383.09;;;14.87;60.05
36260;BME280;22296;50.824;5.644;2023-04-25T06:28:16;100392.91;;;14.84;59.99
36260;BME280;22296;50.824;5.644;2023-04-25T06:30:43;100382.97;;;14.83;59.99
36260;BME280;22296;50.824;5.644;2023-04-25T06:33:15;100387.72;;;14.83;59.99
36260;BME280;22296;50.824;5.644;2023-04-25T06:35:42;100391.63;;;14.82;59.97
36260;BME280;22296;50.824;5.644;2023-04-25T06:38:11;100393.25;;;14.83;59.68
36260;BME280;22296;50.824;5.644;2023-04-25T06:40:43;100399.47;;;14.80;59.91
36260;BME280;22296;50.824;5.644;2023-04-25T06:43:11;100390.63;;;14.78;59.88
36260;BME280;22296;50.824;5.644;2023-04-25T06:45:53;100406.50;;;14.77;59.87
36260;BME280;22296;50.824;5.644;2023-04-25T06:48:21;100418.41;;;14.78;59.93
36260;BME280;22296;50.824;5.644;2023-04-25T06:50:48;100404.03;;;14.76;59.95
36260;BME280;22296;50.824;5.644;2023-04-25T06:53:17;100415.78;;;14.73;60.08
36260;BME280;22296;50.824;5.644;2023-04-25T06:55:47;100423.00;;;14.74;59.97
36260;BME280;22296;50.824;5.644;2023-04-25T06:58:19;100419.72;;;14.72;59.91
36260;BME280;22296;50.824;5.644;2023-04-25T07:00:48;100417.28;;;14.70;60.01
36260;BME280;22296;50.824;5.644;2023-04-25T07:03:17;100421.19;;;14.69;60.05
36260;BME280;22296;50.824;5.644;2023-04-25T07:05:44;100419.56;;;14.68;59.96
36260;BME280;22296;50.824;5.644;2023-04-25T07:08:12;100427.06;;;14.68;60.02
36260;BME280;22296;50.824;5.644;2023-04-25T07:10:39;100427.41;;;14.66;60.00
36260;BME280;22296;50.824;5.644;2023-04-25T07:13:06;100422.19;;;14.65;60.17
36260;BME280;22296;50.824;5.644;2023-04-25T07:15:33;100428.88;;;14.64;59.97
36260;BME280;22296;50.824;5.644;2023-04-25T07:18:01;100424.97;;;14.65;59.98
36260;BME280;22296;50.824;5.644;2023-04-25T07:20:28;100434.41;;;14.64;59.96
36260;BME280;22296;50.824;5.644;2023-04-25T07:22:55;100432.81;;;14.63;60.01
36260;BME280;22296;50.824;5.644;2023-04-25T07:25:23;100439.00;;;14.77;59.98
36260;BME280;22296;50.824;5.644;2023-04-25T07:27:49;100439.94;;;14.81;60.04
36260;BME280;22296;50.824;5.644;2023-04-25T07:30:18;100449.94;;;14.73;60.24
36260;BME280;22296;50.824;5.644;2023-04-25T07:32:45;100455.31;;;14.70;59.89
36260;BME280;22296;50.824;5.644;2023-04-25T07:35:12;100462.03;;;14.69;59.91
36260;BME280;22296;50.824;5.644;2023-04-25T07:37:40;100449.75;;;14.70;59.89
36260;BME280;22296;50.824;5.644;2023-04-25T07:40:13;100458.09;;;14.70;59.90
36260;BME280;22296;50.824;5.644;2023-04-25T07:42:56;100463.97;;;14.68;59.82
36260;BME280;22296;50.824;5.644;2023-04-25T07:45:31;100459.09;;;14.65;60.00
36260;BME280;22296;50.824;5.644;2023-04-25T07:47:58;100461.50;;;14.67;59.87
36260;BME280;22296;50.824;5.644;2023-04-25T07:50:26;100469.38;;;14.65;59.94
36260;BME280;22296;50.824;5.644;2023-04-25T07:52:53;100464.94;;;14.64;59.92
36260;BME280;22296;50.824;5.644;2023-04-25T07:55:29;100465.44;;;14.83;59.91
36260;BME280;22296;50.824;5.644;2023-04-25T07:58:02;100466.72;;;14.94;59.68
36260;BME280;22296;50.824;5.644;2023-04-25T08:00:31;100473.75;;;15.00;59.66
36260;BME280;22296;50.824;5.644;2023-04-25T08:03:18;100475.22;;;15.06;59.73
36260;BME280;22296;50.824;5.644;2023-04-25T08:05:45;100483.19;;;15.08;59.49
36260;BME280;22296;50.824;5.644;2023-04-25T08:08:13;100489.72;;;15.12;59.40
36260;BME280;22296;50.824;5.644;2023-04-25T08:10:40;100487.09;;;15.15;59.35
36260;BME280;22296;50.824;5.644;2023-04-25T08:13:08;100493.16;;;15.17;59.27
36260;BME280;22296;50.824;5.644;2023-04-25T08:15:35;100493.97;;;15.18;59.17
36260;BME280;22296;50.824;5.644;2023-04-25T08:18:03;100503.59;;;15.20;59.18
36260;BME280;22296;50.824;5.644;2023-04-25T08:20:30;100502.44;;;15.21;59.22
36260;BME280;22296;50.824;5.644;2023-04-25T08:22:59;100504.56;;;15.24;59.34
36260;BME280;22296;50.824;5.644;2023-04-25T08:25:41;100506.19;;;15.25;59.30
36260;BME280;22296;50.824;5.644;2023-04-25T08:28:10;100508.34;;;15.20;59.24
36260;BME280;22296;50.824;5.644;2023-04-25T08:30:38;100514.09;;;15.06;59.41
36260;BME280;22296;50.824;5.644;2023-04-25T08:33:06;100517.66;;;14.98;59.49
36260;BME280;22296;50.824;5.644;2023-04-25T08:35:57;100512.63;;;14.92;59.42
36260;BME280;22296;50.824;5.644;2023-04-25T08:38:25;100519.66;;;14.89;59.36
36260;BME280;22296;50.824;5.644;2023-04-25T08:40:54;100523.56;;;14.88;59.50
36260;BME280;22296;50.824;5.644;2023-04-25T08:43:23;100524.22;;;14.85;59.60
36260;BME280;22296;50.824;5.644;2023-04-25T08:45:52;100531.25;;;14.82;59.59
36260;BME280;22296;50.824;5.644;2023-04-25T08:48:33;100533.53;;;14.80;59.70
36260;BME280;22296;50.824;5.644;2023-04-25T08:51:05;100538.28;;;14.80;59.62
36260;BME280;22296;50.824;5.644;2023-04-25T08:53:33;100544.13;;;14.78;59.58
36260;BME280;22296;50.824;5.644;2023-04-25T08:56:03;100545.28;;;14.77;59.60
36260;BME280;22296;50.824;5.644;2023-04-25T08:58:35;100548.06;;;14.77;59.57
36260;BME280;22296;50.824;5.644;2023-04-25T09:01:03;100555.56;;;14.77;59.65
36260;BME280;22296;50.824;5.644;2023-04-25T09:03:36;100554.75;;;14.76;59.50
36260;BME280;22296;50.824;5.644;2023-04-25T09:06:04;100551.50;;;14.74;59.59
36260;BME280;22296;50.824;5.644;2023-04-25T09:08:31;100557.34;;;14.73;59.51
36260;BME280;22296;50.824;5.644;2023-04-25T09:10:57;100566.84;;;14.72;59.50
36260;BME280;22296;50.824;5.644;2023-04-25T09:13:26;100567.16;;;14.70;59.38
36260;BME280;22296;50.824;5.644;2023-04-25T09:16:13;100567.50;;;14.69;59.44
36260;BME280;22296;50.824;5.644;2023-04-25T09:19:03;100576.97;;;14.68;59.52
36260;BME280;22296;50.824;5.644;2023-04-25T09:21:32;100576.13;;;14.67;59.50
36260;BME280;22296;50.824;5.644;2023-04-25T09:24:01;100586.09;;;14.68;59.35
36260;BME280;22296;50.824;5.644;2023-04-25T09:26:28;100586.94;;;14.69;59.29
36260;BME280;22296;50.824;5.644;2023-04-25T09:29:08;100594.75;;;14.67;59.54
36260;BME280;22296;50.824;5.644;2023-04-25T09:31:39;100598.03;;;14.69;59.48
36260;BME280;22296;50.824;5.644;2023-04-25T09:34:07;100601.94;;;14.68;59.50
36260;BME280;22296;50.824;5.644;2023-04-25T09:36:42;100602.28;;;14.66;59.43
36260;BME280;22296;50.824;5.644;2023-04-25T09:39:32;100602.59;;;14.65;59.42
36260;BME280;22296;50.824;5.644;2023-04-25T09:42:10;100607.00;;;14.66;59.47
36260;BME280;22296;50.824;5.644;2023-04-25T09:44:44;100602.59;;;14.65;59.37
36260;BME280;22296;50.824;5.644;2023-04-25T09:47:14;100612.03;;;14.64;59.57
36260;BME280;22296;50.824;5.644;2023-04-25T09:49:44;100619.22;;;14.65;59.36
36260;BME280;22296;50.824;5.644;2023-04-25T09:52:22;100620.88;;;14.66;59.23
36260;BME280;22296;50.824;5.644;2023-04-25T09:55:15;100624.78;;;14.65;59.51
36260;BME280;22296;50.824;5.644;2023-04-25T09:57:46;100614.81;;;14.64;59.45
36260;BME280;22296;50.824;5.644;2023-04-25T10:00:16;100616.47;;;14.65;59.43
36260;BME280;22296;50.824;5.644;2023-04-25T10:02:46;100617.13;;;14.79;59.61
36260;BME280;22296;50.824;5.644;2023-04-25T10:05:30;100624.66;;;14.96;59.13
36260;BME280;22296;50.824;5.644;2023-04-25T10:08:02;100625.31;;;15.01;59.05
36260;BME280;22296;50.824;5.644;2023-04-25T10:10:30;100618.28;;;14.87;58.98
36260;BME280;22296;50.824;5.644;2023-04-25T10:13:04;100610.44;;;14.80;58.85
36260;BME280;22296;50.824;5.644;2023-04-25T10:15:35;100619.44;;;14.77;59.35
36260;BME280;22296;50.824;5.644;2023-04-25T10:18:06;100619.72;;;14.75;59.23
36260;BME280;22296;50.824;5.644;2023-04-25T10:20:33;100618.13;;;14.74;59.16
36260;BME280;22296;50.824;5.644;2023-04-25T10:23:08;100617.31;;;14.74;59.09
36260;BME280;22296;50.824;5.644;2023-04-25T10:25:38;100618.94;;;14.75;59.12
36260;BME280;22296;50.824;5.644;2023-04-25T10:28:05;100624.53;;;14.92;59.03
36260;BME280;22296;50.824;5.644;2023-04-25T10:30:32;100614.19;;;14.84;58.93
36260;BME280;22296;50.824;5.644;2023-04-25T10:32:59;100617.63;;;14.81;58.92
36260;BME280;22296;50.824;5.644;2023-04-25T10:35:29;100619.91;;;14.79;59.02
36260;BME280;22296;50.824;5.644;2023-04-25T10:38:04;100614.34;;;14.79;59.00
36260;BME280;22296;50.824;5.644;2023-04-25T10:40:32;100613.22;;;14.80;58.79
36260;BME280;22296;50.824;5.644;2023-04-25T10:43:33;100614.34;;;14.79;58.80
36260;BME280;22296;50.824;5.644;2023-04-25T10:46:00;100616.66;;;14.77;59.01
36260;BME280;22296;50.824;5.644;2023-04-25T10:48:30;100611.91;;;14.77;58.77
36260;BME280;22296;50.824;5.644;2023-04-25T10:51:31;100614.69;;;14.77;58.83
36260;BME280;22296;50.824;5.644;2023-04-25T10:54:18;100624.50;;;14.75;58.83
36260;BME280;22296;50.824;5.644;2023-04-25T10:56:48;100624.50;;;14.75;58.70
36260;BME280;22296;50.824;5.644;2023-04-25T10:59:18;100618.13;;;14.74;58.85
36260;BME280;22296;50.824;5.644;2023-04-25T11:01:47;100615.00;;;14.76;58.90
36260;BME280;22296;50.824;5.644;2023-04-25T11:07:02;100626.78;;;15.07;58.74
36260;BME280;22296;50.824;5.644;2023-04-25T11:09:39;100636.59;;;15.13;58.44
36260;BME280;22296;50.824;5.644;2023-04-25T11:12:08;100629.75;;;15.02;58.40
36260;BME280;22296;50.824;5.644;2023-04-25T11:14:35;100637.25;;;14.93;58.75
36260;BME280;22296;50.824;5.644;2023-04-25T11:17:02;100636.28;;;14.89;58.72
36260;BME280;22296;50.824;5.644;2023-04-25T11:19:30;100634.63;;;14.88;58.63
36260;BME280;22296;50.824;5.644;2023-04-25T11:21:58;100648.50;;;14.88;58.75
36260;BME280;22296;50.824;5.644;2023-04-25T11:24:35;100638.53;;;14.87;58.63
36260;BME280;22296;50.824;5.644;2023-04-25T11:27:03;100651.59;;;14.87;58.75
36260;BME280;22296;50.824;5.644;2023-04-25T11:29:31;100659.94;;;14.87;58.68
36260;BME280;22296;50.824;5.644;2023-04-25T11:31:59;100652.94;;;14.89;58.72
36260;BME280;22296;50.824;5.644;2023-04-25T11:34:28;100661.28;;;15.06;58.53
36260;BME280;22296;50.824;5.644;2023-04-25T11:36:58;100662.09;;;15.15;58.23
36260;BME280;22296;50.824;5.644;2023-04-25T11:39:25;100661.44;;;15.18;58.20
36260;BME280;22296;50.824;5.644;2023-04-25T11:41:53;100668.47;;;15.24;58.02
36260;BME280;22296;50.824;5.644;2023-04-25T11:44:21;100662.78;;;15.29;58.08
36260;BME280;22296;50.824;5.644;2023-04-25T11:46:48;100666.03;;;15.40;57.85
36260;BME280;22296;50.824;5.644;2023-04-25T11:49:15;100661.31;;;15.40;57.98
36260;BME280;22296;50.824;5.644;2023-04-25T11:51:47;100663.72;;;15.42;57.98
36260;BME280;22296;50.824;5.644;2023-04-25T11:54:15;100660.66;;;15.44;57.74
36260;BME280;22296;50.824;5.644;2023-04-25T11:56:43;100667.34;;;15.43;57.66
36260;BME280;22296;50.824;5.644;2023-04-25T11:59:10;100665.69;;;15.33;57.64
36260;BME280;22296;50.824;5.644;2023-04-25T12:01:40;100663.56;;;15.21;57.86
36260;BME280;22296;50.824;5.644;2023-04-25T12:06:45;100664.72;;;15.12;58.05
36260;BME280;22296;50.824;5.644;2023-04-25T12:09:21;100670.59;;;15.10;58.07
36260;BME280;22296;50.824;5.644;2023-04-25T12:11:53;100668.97;;;15.09;58.20
36260;BME280;22296;50.824;5.644;2023-04-25T12:14:27;100662.91;;;15.07;58.10
36260;BME280;22296;50.824;5.644;2023-04-25T12:16:56;100665.69;;;15.07;58.14
36260;BME280;22296;50.824;5.644;2023-04-25T12:19:32;100657.34;;;15.07;58.20
36260;BME280;22296;50.824;5.644;2023-04-25T12:22:00;100669.63;;;15.06;58.08
36260;BME280;22296;50.824;5.644;2023-04-25T12:24:27;100668.78;;;15.06;58.06
36260;BME280;22296;50.824;5.644;2023-04-25T12:27:05;100659.63;;;15.05;58.11
36260;BME280;22296;50.824;5.644;2023-04-25T12:29:33;100666.31;;;15.04;57.98
36260;BME280;22296;50.824;5.644;2023-04-25T12:32:14;100669.09;;;15.04;57.93
36260;BME280;22296;50.824;5.644;2023-04-25T12:34:41;100664.72;;;15.03;58.02
36260;BME280;22296;50.824;5.644;2023-04-25T12:37:08;100663.53;;;15.04;58.13
36260;BME280;22296;50.824;5.644;2023-04-25T12:39:35;100665.19;;;15.05;57.98
36260;BME280;22296;50.824;5.644;2023-04-25T12:42:02;100666.31;;;15.04;57.72
36260;BME280;22296;50.824;5.644;2023-04-25T12:44:32;100679.09;;;15.05;57.89
36260;BME280;22296;50.824;5.644;2023-04-25T12:46:59;100666.31;;;15.04;57.78
36260;BME280;22296;50.824;5.644;2023-04-25T12:49:26;100674.34;;;15.06;57.84
36260;BME280;22296;50.824;5.644;2023-04-25T12:51:53;100677.94;;;15.06;57.80
36260;BME280;22296;50.824;5.644;2023-04-25T12:54:20;100678.25;;;15.05;57.95
36260;BME280;22296;50.824;5.644;2023-04-25T12:56:46;100680.72;;;15.06;57.80
36260;BME280;22296;50.824;5.644;2023-04-25T12:59:13;100677.44;;;15.04;57.83
36260;BME280;22296;50.824;5.644;2023-04-25T13:01:40;100675.81;;;15.03;57.88
36260;BME280;22296;50.824;5.644;2023-04-25T13:04:07;100678.25;;;15.05;57.76
36260;BME280;22296;50.824;5.644;2023-04-25T13:06:34;100688.53;;;15.04;57.72
36260;BME280;22296;50.824;5.644;2023-04-25T13:09:01;100700.47;;;15.05;57.64
36260;BME280;22296;50.824;5.644;2023-04-25T13:11:29;100698.34;;;15.02;57.74
36260;BME280;22296;50.824;5.644;2023-04-25T13:13:56;100718.59;;;15.02;57.63
36260;BME280;22296;50.824;5.644;2023-04-25T13:16:22;100710.94;;;14.99;57.55